sensor_id;sensor_type;location;lat;lon;timestamp;P1;durP1;ratioP1;P2;durP2;ratioP2
13408;SDS011;6775;49.574;11.170;2024-03-23T00:53:45;5.60;;;4.73;;
13408;SDS011;6775;49.574;11.170;2024-03-23T00:56:12;7.10;;;5.07;;
13408;SDS011;6775;49.574;11.170;2024-03-23T00:58:40;7.47;;;5.53;;
13408;SDS011;6775;49.574;11.170;2024-03-23T01:01:06;7.10;;;5.87;;
13408;SDS011;6775;49.574;11.170;2024-03-23T01:03:34;6.07;;;5.37;;
13408;SDS011;6775;49.574;11.170;2024-03-23T01:06:00;8.30;;;5.63;;
13408;SDS011;6775;49.574;11.170;2024-03-23T01:08:29;8.07;;;5.77;;
13408;SDS011;6775;49.574;11.170;2024-03-23T01:10:57;6.03;;;5.07;;
13408;SDS011;6775;49.574;11.170;2024-03-23T01:13:26;6.80;;;5.20;;
13408;SDS011;6775;49.574;11.170;2024-03-23T01:15:53;6.77;;;5.53;;
13408;SDS011;6775;49.574;11.170;2024-03-23T01:18:23;6.00;;;5.40;;
13408;SDS011;6775;49.574;11.170;2024-03-23T01:20:51;9.07;;;5.53;;
13408;SDS011;6775;49.574;11.170;2024-03-23T01:23:19;7.70;;;5.47;;
13408;SDS011;6775;49.574;11.170;2024-03-23T01:25:51;7.07;;;5.73;;
13408;SDS011;6775;49.574;11.170;2024-03-23T01:28:21;6.80;;;5.97;;
13408;SDS011;6775;49.574;11.170;2024-03-23T01:30:47;7.50;;;6.27;;
13408;SDS011;6775;49.574;11.170;2024-03-23T01:33:15;6.57;;;5.63;;
13408;SDS011;6775;49.574;11.170;2024-03-23T01:35:42;6.73;;;5.73;;
13408;SDS011;6775;49.574;11.170;2024-03-23T01:38:09;8.37;;;5.80;;
13408;SDS011;6775;49.574;11.170;2024-03-23T01:40:36;7.77;;;6.20;;
13408;SDS011;6775;49.574;11.170;2024-03-23T01:43:04;8.90;;;6.20;;
13408;SDS011;6775;49.574;11.170;2024-03-23T01:45:34;8.13;;;6.50;;
13408;SDS011;6775;49.574;11.170;2024-03-23T01:48:03;9.10;;;6.30;;
13408;SDS011;6775;49.574;11.170;2024-03-23T01:50:30;8.23;;;6.33;;
13408;SDS011;6775;49.574;11.170;2024-03-23T01:52:59;9.87;;;6.00;;
13408;SDS011;6775;49.574;11.170;2024-03-23T01:55:28;7.50;;;6.20;;
13408;SDS011;6775;49.574;11.170;2024-03-23T01:57:56;7.77;;;6.23;;
13408;SDS011;6775;49.574;11.170;2024-03-23T02:00:23;10.50;;;7.37;;
13408;SDS011;6775;49.574;11.170;2024-03-23T02:02:54;7.93;;;6.27;;
13408;SDS011;6775;49.574;11.170;2024-03-23T02:05:21;8.33;;;6.57;;
13408;SDS011;6775;49.574;11.170;2024-03-23T02:07:49;7.47;;;6.10;;
13408;SDS011;6775;49.574;11.170;2024-03-23T02:10:17;7.73;;;5.80;;
13408;SDS011;6775;49.574;11.170;2024-03-23T02:12:44;5.83;;;5.00;;
13408;SDS011;6775;49.574;11.170;2024-03-23T02:15:11;7.13;;;5.80;;
13408;SDS011;6775;49.574;11.170;2024-03-23T02:17:38;9.23;;;6.10;;
13408;SDS011;6775;49.574;11.170;2024-03-23T02:20:07;8.17;;;6.13;;
13408;SDS011;6775;49.574;11.170;2024-03-23T02:22:36;10.50;;;7.50;;
13408;SDS011;6775;49.574;11.170;2024-03-23T02:25:05;7.27;;;5.40;;
13408;SDS011;6775;49.574;11.170;2024-03-23T02:27:33;8.53;;;6.03;;
13408;SDS011;6775;49.574;11.170;2024-03-23T02:30:01;7.97;;;5.77;;
13408;SDS011;6775;49.574;11.170;2024-03-23T02:32:29;6.63;;;5.80;;
13408;SDS011;6775;49.574;11.170;2024-03-23T02:34:55;6.83;;;5.83;;
13408;SDS011;6775;49.574;11.170;2024-03-23T02:37:23;7.00;;;5.87;;
13408;SDS011;6775;49.574;11.170;2024-03-23T02:39:50;6.97;;;5.37;;
13408;SDS011;6775;49.574;11.170;2024-03-23T02:42:19;6.03;;;5.43;;
13408;SDS011;6775;49.574;11.170;2024-03-23T02:44:45;6.97;;;5.47;;
13408;SDS011;6775;49.574;11.170;2024-03-23T02:47:13;5.13;;;4.63;;
13408;SDS011;6775;49.574;11.170;2024-03-23T02:49:39;6.00;;;4.63;;
13408;SDS011;6775;49.574;11.170;2024-03-23T02:52:06;7.87;;;5.20;;
13408;SDS011;6775;49.574;11.170;2024-03-23T02:54:33;6.70;;;5.50;;
13408;SDS011;6775;49.574;11.170;2024-03-23T02:57:00;7.87;;;4.97;;
13408;SDS011;6775;49.574;11.170;2024-03-23T02:59:28;5.60;;;4.80;;
13408;SDS011;6775;49.574;11.170;2024-03-23T03:01:56;7.50;;;5.10;;
13408;SDS011;6775;49.574;11.170;2024-03-23T03:04:22;7.37;;;5.23;;
13408;SDS011;6775;49.574;11.170;2024-03-23T03:06:50;6.20;;;4.87;;
13408;SDS011;6775;49.574;11.170;2024-03-23T03:09:16;6.80;;;4.80;;
13408;SDS011;6775;49.574;11.170;2024-03-23T03:11:43;5.23;;;4.73;;
13408;SDS011;6775;49.574;11.170;2024-03-23T03:14:10;6.57;;;4.80;;
13408;SDS011;6775;49.574;11.170;2024-03-23T03:16:39;7.00;;;5.37;;
13408;SDS011;6775;49.574;11.170;2024-03-23T03:19:05;8.00;;;4.30;;
13408;SDS011;6775;49.574;11.170;2024-03-23T03:21:33;6.57;;;4.57;;
13408;SDS011;6775;49.574;11.170;2024-03-23T03:23:59;6.33;;;5.10;;
13408;SDS011;6775;49.574;11.170;2024-03-23T03:26:27;5.93;;;5.17;;
13408;SDS011;6775;49.574;11.170;2024-03-23T03:28:53;6.07;;;4.50;;
13408;SDS011;6775;49.574;11.170;2024-03-23T03:31:21;5.33;;;4.43;;
13408;SDS011;6775;49.574;11.170;2024-03-23T03:33:49;4.90;;;4.40;;
13408;SDS011;6775;49.574;11.170;2024-03-23T03:36:17;5.10;;;4.27;;
13408;SDS011;6775;49.574;11.170;2024-03-23T03:38:43;6.37;;;4.67;;
13408;SDS011;6775;49.574;11.170;2024-03-23T03:41:11;5.97;;;4.90;;
13408;SDS011;6775;49.574;11.170;2024-03-23T03:43:37;6.63;;;5.20;;
13408;SDS011;6775;49.574;11.170;2024-03-23T03:46:05;6.47;;;4.70;;
13408;SDS011;6775;49.574;11.170;2024-03-23T03:48:33;6.37;;;5.37;;
13408;SDS011;6775;49.574;11.170;2024-03-23T03:51:02;6.50;;;5.50;;
13408;SDS011;6775;49.574;11.170;2024-03-23T03:53:29;7.00;;;5.50;;
13408;SDS011;6775;49.574;11.170;2024-03-23T03:56:00;6.63;;;5.67;;
13408;SDS011;6775;49.574;11.170;2024-03-23T03:58:27;8.30;;;5.77;;
13408;SDS011;6775;49.574;11.170;2024-03-23T04:00:55;7.17;;;5.53;;
13408;SDS011;6775;49.574;11.170;2024-03-23T04:03:21;7.87;;;5.80;;
13408;SDS011;6775;49.574;11.170;2024-03-23T04:05:51;6.40;;;5.20;;
13408;SDS011;6775;49.574;11.170;2024-03-23T04:08:20;9.27;;;5.77;;
13408;SDS011;6775;49.574;11.170;2024-03-23T04:10:48;7.77;;;5.77;;
13408;SDS011;6775;49.574;11.170;2024-03-23T04:13:14;6.50;;;5.90;;
13408;SDS011;6775;49.574;11.170;2024-03-23T04:15:42;6.83;;;5.60;;
13408;SDS011;6775;49.574;11.170;2024-03-23T04:18:08;6.97;;;5.60;;
13408;SDS011;6775;49.574;11.170;2024-03-23T04:20:35;6.83;;;5.37;;
13408;SDS011;6775;49.574;11.170;2024-03-23T04:23:02;5.80;;;5.17;;
13408;SDS011;6775;49.574;11.170;2024-03-23T04:25:31;7.47;;;6.33;;
13408;SDS011;6775;49.574;11.170;2024-03-23T04:27:58;6.30;;;5.70;;
13408;SDS011;6775;49.574;11.170;2024-03-23T04:30:26;7.43;;;6.13;;
13408;SDS011;6775;49.574;11.170;2024-03-23T04:32:54;9.07;;;6.00;;
13408;SDS011;6775;49.574;11.170;2024-03-23T04:35:22;8.60;;;6.00;;
13408;SDS011;6775;49.574;11.170;2024-03-23T04:37:50;7.90;;;6.00;;
13408;SDS011;6775;49.574;11.170;2024-03-23T04:40:18;10.40;;;6.13;;
13408;SDS011;6775;49.574;11.170;2024-03-23T04:42:48;9.10;;;6.57;;
13408;SDS011;6775;49.574;11.170;2024-03-23T04:45:15;8.77;;;6.20;;
13408;SDS011;6775;49.574;11.170;2024-03-23T04:47:43;7.27;;;6.07;;
13408;SDS011;6775;49.574;11.170;2024-03-23T04:50:10;8.40;;;6.00;;
13408;SDS011;6775;49.574;11.170;2024-03-23T04:52:38;6.93;;;5.77;;
13408;SDS011;6775;49.574;11.170;2024-03-23T04:55:06;6.87;;;5.53;;
13408;SDS011;6775;49.574;11.170;2024-03-23T04:57:34;8.97;;;5.70;;
13408;SDS011;6775;49.574;11.170;2024-03-23T05:00:01;8.13;;;5.93;;
13408;SDS011;6775;49.574;11.170;2024-03-23T05:02:42;7.17;;;5.77;;
13408;SDS011;6775;49.574;11.170;2024-03-23T05:05:11;6.70;;;5.90;;
13408;SDS011;6775;49.574;11.170;2024-03-23T05:07:39;8.17;;;5.23;;
13408;SDS011;6775;49.574;11.170;2024-03-23T05:10:08;7.40;;;5.73;;
13408;SDS011;6775;49.574;11.170;2024-03-23T05:12:38;5.97;;;5.30;;
13408;SDS011;6775;49.574;11.170;2024-03-23T05:15:07;6.17;;;5.57;;
13408;SDS011;6775;49.574;11.170;2024-03-23T05:17:34;8.43;;;5.60;;
13408;SDS011;6775;49.574;11.170;2024-03-23T05:20:01;8.10;;;5.37;;
13408;SDS011;6775;49.574;11.170;2024-03-23T05:22:29;7.47;;;5.20;;
13408;SDS011;6775;49.574;11.170;2024-03-23T05:24:56;6.23;;;5.37;;
13408;SDS011;6775;49.574;11.170;2024-03-23T05:27:23;6.43;;;5.27;;
13408;SDS011;6775;49.574;11.170;2024-03-23T05:29:50;7.47;;;5.20;;
13408;SDS011;6775;49.574;11.170;2024-03-23T05:32:19;6.27;;;5.50;;
13408;SDS011;6775;49.574;11.170;2024-03-23T05:34:46;7.27;;;5.13;;
13408;SDS011;6775;49.574;11.170;2024-03-23T05:37:15;9.83;;;5.23;;
13408;SDS011;6775;49.574;11.170;2024-03-23T05:39:42;7.83;;;5.40;;
13408;SDS011;6775;49.574;11.170;2024-03-23T05:42:09;6.70;;;5.20;;
13408;SDS011;6775;49.574;11.170;2024-03-23T05:44:36;5.33;;;4.83;;
13408;SDS011;6775;49.574;11.170;2024-03-23T05:47:03;5.67;;;5.07;;
13408;SDS011;6775;49.574;11.170;2024-03-23T05:49:32;6.07;;;4.90;;
13408;SDS011;6775;49.574;11.170;2024-03-23T05:51:59;6.53;;;5.03;;
13408;SDS011;6775;49.574;11.170;2024-03-23T05:54:28;6.07;;;5.03;;
13408;SDS011;6775;49.574;11.170;2024-03-23T05:56:56;10.00;;;4.93;;
13408;SDS011;6775;49.574;11.170;2024-03-23T05:59:23;5.30;;;4.53;;
13408;SDS011;6775;49.574;11.170;2024-03-23T06:01:50;5.73;;;4.63;;
13408;SDS011;6775;49.574;11.170;2024-03-23T06:04:17;5.27;;;4.60;;
13408;SDS011;6775;49.574;11.170;2024-03-23T06:06:46;8.33;;;5.70;;
13408;SDS011;6775;49.574;11.170;2024-03-23T06:09:12;6.33;;;4.93;;
13408;SDS011;6775;49.574;11.170;2024-03-23T06:11:40;8.83;;;6.40;;
13408;SDS011;6775;49.574;11.170;2024-03-23T06:14:06;6.47;;;5.10;;
13408;SDS011;6775;49.574;11.170;2024-03-23T06:16:34;7.67;;;4.77;;
13408;SDS011;6775;49.574;11.170;2024-03-23T06:19:00;5.60;;;5.00;;
13408;SDS011;6775;49.574;11.170;2024-03-23T06:21:29;5.33;;;4.53;;
13408;SDS011;6775;49.574;11.170;2024-03-23T06:23:57;6.67;;;4.73;;
13408;SDS011;6775;49.574;11.170;2024-03-23T06:26:25;8.90;;;4.47;;
13408;SDS011;6775;49.574;11.170;2024-03-23T06:28:51;5.53;;;3.93;;
13408;SDS011;6775;49.574;11.170;2024-03-23T06:31:19;6.77;;;4.50;;
13408;SDS011;6775;49.574;11.170;2024-03-23T06:33:45;5.83;;;4.73;;
13408;SDS011;6775;49.574;11.170;2024-03-23T06:36:13;6.13;;;4.97;;
13408;SDS011;6775;49.574;11.170;2024-03-23T06:38:39;9.77;;;5.80;;
13408;SDS011;6775;49.574;11.170;2024-03-23T06:41:08;31.27;;;22.63;;
13408;SDS011;6775;49.574;11.170;2024-03-23T06:43:35;29.97;;;19.37;;
13408;SDS011;6775;49.574;11.170;2024-03-23T06:46:03;12.83;;;8.77;;
13408;SDS011;6775;49.574;11.170;2024-03-23T06:48:29;9.73;;;7.60;;
13408;SDS011;6775;49.574;11.170;2024-03-23T06:50:57;10.37;;;6.87;;
13408;SDS011;6775;49.574;11.170;2024-03-23T06:53:24;10.90;;;6.80;;
13408;SDS011;6775;49.574;11.170;2024-03-23T06:55:51;8.67;;;6.53;;
13408;SDS011;6775;49.574;11.170;2024-03-23T06:58:21;8.10;;;6.47;;
13408;SDS011;6775;49.574;11.170;2024-03-23T07:00:50;8.07;;;6.40;;
13408;SDS011;6775;49.574;11.170;2024-03-23T07:03:17;8.23;;;6.17;;
13408;SDS011;6775;49.574;11.170;2024-03-23T07:05:44;7.00;;;5.53;;
13408;SDS011;6775;49.574;11.170;2024-03-23T07:08:11;7.27;;;5.87;;
13408;SDS011;6775;49.574;11.170;2024-03-23T07:10:44;7.20;;;5.63;;
13408;SDS011;6775;49.574;11.170;2024-03-23T07:13:10;7.47;;;5.70;;
13408;SDS011;6775;49.574;11.170;2024-03-23T07:15:39;10.37;;;6.07;;
13408;SDS011;6775;49.574;11.170;2024-03-23T07:18:05;8.07;;;5.63;;
13408;SDS011;6775;49.574;11.170;2024-03-23T07:20:33;7.43;;;5.50;;
13408;SDS011;6775;49.574;11.170;2024-03-23T07:22:59;6.83;;;5.70;;
13408;SDS011;6775;49.574;11.170;2024-03-23T07:25:27;7.97;;;5.20;;
13408;SDS011;6775;49.574;11.170;2024-03-23T07:27:54;6.10;;;4.90;;
13408;SDS011;6775;49.574;11.170;2024-03-23T07:30:22;10.00;;;5.57;;
13408;SDS011;6775;49.574;11.170;2024-03-23T07:32:49;6.73;;;5.17;;
13408;SDS011;6775;49.574;11.170;2024-03-23T07:35:17;7.20;;;4.93;;
13408;SDS011;6775;49.574;11.170;2024-03-23T07:37:43;5.80;;;4.37;;
13408;SDS011;6775;49.574;11.170;2024-03-23T07:40:12;7.67;;;5.03;;
13408;SDS011;6775;49.574;11.170;2024-03-23T07:42:39;7.23;;;4.70;;
13408;SDS011;6775;49.574;11.170;2024-03-23T07:45:07;6.57;;;4.90;;
13408;SDS011;6775;49.574;11.170;2024-03-23T07:47:34;7.57;;;4.67;;
13408;SDS011;6775;49.574;11.170;2024-03-23T07:50:04;6.67;;;5.07;;
13408;SDS011;6775;49.574;11.170;2024-03-23T07:52:31;5.90;;;4.80;;
13408;SDS011;6775;49.574;11.170;2024-03-23T07:54:59;7.40;;;5.20;;
13408;SDS011;6775;49.574;11.170;2024-03-23T07:57:25;7.17;;;5.37;;
13408;SDS011;6775;49.574;11.170;2024-03-23T07:59:53;6.53;;;4.43;;
13408;SDS011;6775;49.574;11.170;2024-03-23T08:02:19;8.60;;;5.47;;
13408;SDS011;6775;49.574;11.170;2024-03-23T08:04:47;7.50;;;5.10;;
13408;SDS011;6775;49.574;11.170;2024-03-23T08:07:15;7.73;;;4.87;;
13408;SDS011;6775;49.574;11.170;2024-03-23T08:09:43;6.33;;;4.90;;
13408;SDS011;6775;49.574;11.170;2024-03-23T08:12:10;6.17;;;4.90;;
13408;SDS011;6775;49.574;11.170;2024-03-23T08:14:37;6.63;;;4.27;;
13408;SDS011;6775;49.574;11.170;2024-03-23T08:17:04;5.80;;;4.10;;
13408;SDS011;6775;49.574;11.170;2024-03-23T08:19:31;5.00;;;3.70;;
13408;SDS011;6775;49.574;11.170;2024-03-23T08:21:58;6.33;;;4.07;;
13408;SDS011;6775;49.574;11.170;2024-03-23T08:24:26;5.43;;;3.87;;
13408;SDS011;6775;49.574;11.170;2024-03-23T08:26:54;5.27;;;3.83;;
13408;SDS011;6775;49.574;11.170;2024-03-23T08:29:21;4.37;;;3.33;;
13408;SDS011;6775;49.574;11.170;2024-03-23T08:31:48;3.37;;;2.80;;
13408;SDS011;6775;49.574;11.170;2024-03-23T08:34:15;3.20;;;2.43;;
13408;SDS011;6775;49.574;11.170;2024-03-23T08:36:42;3.27;;;2.23;;
13408;SDS011;6775;49.574;11.170;2024-03-23T08:39:09;3.50;;;2.50;;
13408;SDS011;6775;49.574;11.170;2024-03-23T08:41:37;2.93;;;2.20;;
13408;SDS011;6775;49.574;11.170;2024-03-23T08:44:04;3.07;;;2.13;;
13408;SDS011;6775;49.574;11.170;2024-03-23T08:46:31;2.50;;;2.10;;
13408;SDS011;6775;49.574;11.170;2024-03-23T08:48:58;1.80;;;1.40;;
13408;SDS011;6775;49.574;11.170;2024-03-23T08:51:25;6.23;;;4.23;;
13408;SDS011;6775;49.574;11.170;2024-03-23T08:53:52;2.60;;;1.40;;
13408;SDS011;6775;49.574;11.170;2024-03-23T08:56:19;1.50;;;1.40;;
13408;SDS011;6775;49.574;11.170;2024-03-23T08:58:47;2.10;;;1.83;;
13408;SDS011;6775;49.574;11.170;2024-03-23T09:01:14;1.70;;;1.50;;
13408;SDS011;6775;49.574;11.170;2024-03-23T09:03:42;1.73;;;1.53;;
13408;SDS011;6775;49.574;11.170;2024-03-23T09:06:08;2.37;;;1.60;;
13408;SDS011;6775;49.574;11.170;2024-03-23T09:08:38;1.40;;;1.30;;
13408;SDS011;6775;49.574;11.170;2024-03-23T09:11:06;2.20;;;1.13;;
13408;SDS011;6775;49.574;11.170;2024-03-23T09:13:35;2.23;;;1.00;;
13408;SDS011;6775;49.574;11.170;2024-03-23T09:16:05;1.47;;;1.20;;
13408;SDS011;6775;49.574;11.170;2024-03-23T09:18:35;1.07;;;0.97;;
13408;SDS011;6775;49.574;11.170;2024-03-23T09:21:02;1.47;;;1.00;;
13408;SDS011;6775;49.574;11.170;2024-03-23T09:23:37;0.77;;;0.77;;
13408;SDS011;6775;49.574;11.170;2024-03-23T09:26:03;0.70;;;0.70;;
13408;SDS011;6775;49.574;11.170;2024-03-23T09:28:32;0.67;;;0.50;;
13408;SDS011;6775;49.574;11.170;2024-03-23T09:31:02;0.60;;;0.60;;
13408;SDS011;6775;49.574;11.170;2024-03-23T09:33:31;0.80;;;0.73;;
13408;SDS011;6775;49.574;11.170;2024-03-23T09:36:02;0.33;;;0.33;;
13408;SDS011;6775;49.574;11.170;2024-03-23T09:38:29;0.60;;;0.60;;
13408;SDS011;6775;49.574;11.170;2024-03-23T09:40:57;0.37;;;0.37;;
13408;SDS011;6775;49.574;11.170;2024-03-23T09:43:24;0.93;;;0.40;;
13408;SDS011;6775;49.574;11.170;2024-03-23T09:45:52;0.30;;;0.30;;
13408;SDS011;6775;49.574;11.170;2024-03-23T09:48:19;0.87;;;0.20;;
13408;SDS011;6775;49.574;11.170;2024-03-23T09:50:48;0.30;;;0.30;;
13408;SDS011;6775;49.574;11.170;2024-03-23T09:53:14;0.40;;;0.40;;
13408;SDS011;6775;49.574;11.170;2024-03-23T09:55:42;0.47;;;0.30;;
13408;SDS011;6775;49.574;11.170;2024-03-23T09:58:12;1.57;;;1.00;;
13408;SDS011;6775;49.574;11.170;2024-03-23T10:00:40;0.50;;;0.50;;
13408;SDS011;6775;49.574;11.170;2024-03-23T10:03:07;0.20;;;0.20;;
13408;SDS011;6775;49.574;11.170;2024-03-23T10:05:36;1.23;;;0.30;;
13408;SDS011;6775;49.574;11.170;2024-03-23T10:08:16;0.20;;;0.20;;
13408;SDS011;6775;49.574;11.170;2024-03-23T10:10:45;0.73;;;0.40;;
13408;SDS011;6775;49.574;11.170;2024-03-23T10:13:15;0.40;;;0.40;;
13408;SDS011;6775;49.574;11.170;2024-03-23T10:15:55;0.50;;;0.50;;
13408;SDS011;6775;49.574;11.170;2024-03-23T10:18:23;1.07;;;0.60;;
13408;SDS011;6775;49.574;11.170;2024-03-23T10:21:06;0.50;;;0.50;;
13408;SDS011;6775;49.574;11.170;2024-03-23T10:23:35;0.40;;;0.40;;
13408;SDS011;6775;49.574;11.170;2024-03-23T10:26:15;1.07;;;0.67;;
13408;SDS011;6775;49.574;11.170;2024-03-23T10:28:51;1.07;;;0.80;;
13408;SDS011;6775;49.574;11.170;2024-03-23T10:31:26;1.07;;;0.50;;
13408;SDS011;6775;49.574;11.170;2024-03-23T10:33:54;1.13;;;0.90;;
13408;SDS011;6775;49.574;11.170;2024-03-23T10:36:20;2.03;;;0.90;;
13408;SDS011;6775;49.574;11.170;2024-03-23T10:38:50;2.10;;;0.93;;
13408;SDS011;6775;49.574;11.170;2024-03-23T10:41:18;1.43;;;0.90;;
13408;SDS011;6775;49.574;11.170;2024-03-23T10:43:47;1.33;;;1.23;;
13408;SDS011;6775;49.574;11.170;2024-03-23T10:46:15;0.70;;;0.70;;
13408;SDS011;6775;49.574;11.170;2024-03-23T10:48:43;0.80;;;0.80;;
13408;SDS011;6775;49.574;11.170;2024-03-23T10:51:10;1.63;;;0.80;;
13408;SDS011;6775;49.574;11.170;2024-03-23T10:53:40;2.63;;;1.00;;
13408;SDS011;6775;49.574;11.170;2024-03-23T10:56:09;1.20;;;0.90;;
13408;SDS011;6775;49.574;11.170;2024-03-23T10:58:40;1.40;;;1.07;;
13408;SDS011;6775;49.574;11.170;2024-03-23T11:01:11;2.53;;;1.10;;
13408;SDS011;6775;49.574;11.170;2024-03-23T11:03:39;1.70;;;0.90;;
13408;SDS011;6775;49.574;11.170;2024-03-23T11:06:12;2.43;;;1.00;;
13408;SDS011;6775;49.574;11.170;2024-03-23T11:09:03;1.00;;;1.00;;
13408;SDS011;6775;49.574;11.170;2024-03-23T11:11:51;2.67;;;1.00;;
13408;SDS011;6775;49.574;11.170;2024-03-23T11:14:21;3.27;;;1.77;;
13408;SDS011;6775;49.574;11.170;2024-03-23T11:16:50;2.70;;;1.20;;
13408;SDS011;6775;49.574;11.170;2024-03-23T11:19:36;3.50;;;1.50;;
13408;SDS011;6775;49.574;11.170;2024-03-23T11:22:03;3.47;;;1.90;;
13408;SDS011;6775;49.574;11.170;2024-03-23T11:24:33;1.77;;;1.17;;
13408;SDS011;6775;49.574;11.170;2024-03-23T11:27:01;1.73;;;1.23;;
13408;SDS011;6775;49.574;11.170;2024-03-23T11:29:29;3.77;;;1.40;;
13408;SDS011;6775;49.574;11.170;2024-03-23T11:31:56;2.03;;;1.10;;
13408;SDS011;6775;49.574;11.170;2024-03-23T11:34:24;2.13;;;1.50;;
13408;SDS011;6775;49.574;11.170;2024-03-23T11:36:50;3.80;;;1.40;;
13408;SDS011;6775;49.574;11.170;2024-03-23T11:39:31;1.87;;;1.50;;
13408;SDS011;6775;49.574;11.170;2024-03-23T11:41:58;3.17;;;1.70;;
13408;SDS011;6775;49.574;11.170;2024-03-23T11:44:27;1.67;;;1.10;;
13408;SDS011;6775;49.574;11.170;2024-03-23T11:46:53;1.70;;;1.50;;
13408;SDS011;6775;49.574;11.170;2024-03-23T11:49:34;1.93;;;1.10;;
13408;SDS011;6775;49.574;11.170;2024-03-23T11:52:06;2.53;;;1.50;;
13408;SDS011;6775;49.574;11.170;2024-03-23T11:54:33;4.60;;;1.60;;
13408;SDS011;6775;49.574;11.170;2024-03-23T11:57:02;2.80;;;1.50;;
13408;SDS011;6775;49.574;11.170;2024-03-23T11:59:33;2.20;;;1.20;;
13408;SDS011;6775;49.574;11.170;2024-03-23T12:02:05;3.73;;;1.37;;
13408;SDS011;6775;49.574;11.170;2024-03-23T12:04:34;2.63;;;1.53;;
13408;SDS011;6775;49.574;11.170;2024-03-23T12:07:14;2.47;;;1.40;;
13408;SDS011;6775;49.574;11.170;2024-03-23T12:09:44;4.30;;;2.60;;
13408;SDS011;6775;49.574;11.170;2024-03-23T12:12:15;6.60;;;3.00;;
13408;SDS011;6775;49.574;11.170;2024-03-23T12:14:44;4.57;;;2.70;;
13408;SDS011;6775;49.574;11.170;2024-03-23T12:17:26;3.03;;;1.90;;
13408;SDS011;6775;49.574;11.170;2024-03-23T12:19:53;2.33;;;1.40;;
13408;SDS011;6775;49.574;11.170;2024-03-23T12:22:20;6.27;;;2.07;;
13408;SDS011;6775;49.574;11.170;2024-03-23T12:24:48;4.03;;;2.00;;
13408;SDS011;6775;49.574;11.170;2024-03-23T12:27:16;3.87;;;1.70;;
13408;SDS011;6775;49.574;11.170;2024-03-23T12:29:44;4.63;;;1.60;;
13408;SDS011;6775;49.574;11.170;2024-03-23T12:32:12;3.10;;;1.33;;
13408;SDS011;6775;49.574;11.170;2024-03-23T12:34:41;6.70;;;2.70;;
13408;SDS011;6775;49.574;11.170;2024-03-23T12:37:08;2.13;;;1.70;;
13408;SDS011;6775;49.574;11.170;2024-03-23T12:39:35;4.10;;;1.50;;
13408;SDS011;6775;49.574;11.170;2024-03-23T12:42:02;2.80;;;1.20;;
13408;SDS011;6775;49.574;11.170;2024-03-23T12:44:31;2.40;;;1.53;;
13408;SDS011;6775;49.574;11.170;2024-03-23T12:46:58;2.80;;;1.43;;
13408;SDS011;6775;49.574;11.170;2024-03-23T12:49:25;2.13;;;1.33;;
13408;SDS011;6775;49.574;11.170;2024-03-23T12:51:55;2.27;;;1.33;;
13408;SDS011;6775;49.574;11.170;2024-03-23T12:54:24;5.73;;;1.80;;
13408;SDS011;6775;49.574;11.170;2024-03-23T12:56:51;2.30;;;1.50;;
13408;SDS011;6775;49.574;11.170;2024-03-23T12:59:18;2.13;;;1.40;;
13408;SDS011;6775;49.574;11.170;2024-03-23T13:01:46;3.37;;;1.60;;
13408;SDS011;6775;49.574;11.170;2024-03-23T13:04:14;1.87;;;1.30;;
13408;SDS011;6775;49.574;11.170;2024-03-23T13:06:40;5.57;;;1.50;;
13408;SDS011;6775;49.574;11.170;2024-03-23T13:09:07;3.33;;;1.90;;
13408;SDS011;6775;49.574;11.170;2024-03-23T13:11:34;3.67;;;1.30;;
13408;SDS011;6775;49.574;11.170;2024-03-23T13:14:01;3.17;;;1.63;;
13408;SDS011;6775;49.574;11.170;2024-03-23T13:16:29;3.20;;;1.50;;
13408;SDS011;6775;49.574;11.170;2024-03-23T13:18:58;3.97;;;1.90;;
13408;SDS011;6775;49.574;11.170;2024-03-23T13:21:26;4.07;;;1.80;;
13408;SDS011;6775;49.574;11.170;2024-03-23T13:23:54;3.13;;;1.60;;
13408;SDS011;6775;49.574;11.170;2024-03-23T13:26:20;3.13;;;1.67;;
13408;SDS011;6775;49.574;11.170;2024-03-23T13:28:48;3.10;;;1.50;;
13408;SDS011;6775;49.574;11.170;2024-03-23T13:31:14;2.17;;;1.37;;
13408;SDS011;6775;49.574;11.170;2024-03-23T13:33:41;4.07;;;1.60;;
13408;SDS011;6775;49.574;11.170;2024-03-23T13:36:10;2.83;;;1.57;;
13408;SDS011;6775;49.574;11.170;2024-03-23T13:38:38;2.60;;;1.40;;
13408;SDS011;6775;49.574;11.170;2024-03-23T13:41:05;3.37;;;1.60;;
13408;SDS011;6775;49.574;11.170;2024-03-23T13:43:34;2.23;;;1.57;;
13408;SDS011;6775;49.574;11.170;2024-03-23T13:46:00;1.30;;;1.20;;
13408;SDS011;6775;49.574;11.170;2024-03-23T13:48:28;3.53;;;1.40;;
13408;SDS011;6775;49.574;11.170;2024-03-23T13:50:57;6.43;;;1.57;;
13408;SDS011;6775;49.574;11.170;2024-03-23T13:53:26;2.50;;;1.10;;
13408;SDS011;6775;49.574;11.170;2024-03-23T13:55:53;3.87;;;1.43;;
13408;SDS011;6775;49.574;11.170;2024-03-23T13:58:20;3.80;;;1.47;;
13408;SDS011;6775;49.574;11.170;2024-03-23T14:00:49;4.13;;;1.57;;
13408;SDS011;6775;49.574;11.170;2024-03-23T14:03:16;2.43;;;1.00;;
13408;SDS011;6775;49.574;11.170;2024-03-23T14:05:43;2.97;;;1.80;;
13408;SDS011;6775;49.574;11.170;2024-03-23T14:08:12;6.27;;;3.30;;
13408;SDS011;6775;49.574;11.170;2024-03-23T14:10:41;6.80;;;3.63;;
13408;SDS011;6775;49.574;11.170;2024-03-23T14:13:10;2.77;;;2.13;;
13408;SDS011;6775;49.574;11.170;2024-03-23T14:15:36;3.17;;;1.53;;
13408;SDS011;6775;49.574;11.170;2024-03-23T14:18:04;2.50;;;1.40;;
13408;SDS011;6775;49.574;11.170;2024-03-23T14:20:31;5.47;;;1.40;;
13408;SDS011;6775;49.574;11.170;2024-03-23T14:22:59;3.73;;;1.67;;
13408;SDS011;6775;49.574;11.170;2024-03-23T14:25:26;2.17;;;1.30;;
13408;SDS011;6775;49.574;11.170;2024-03-23T14:27:56;4.93;;;1.50;;
13408;SDS011;6775;49.574;11.170;2024-03-23T14:30:23;3.83;;;1.40;;
13408;SDS011;6775;49.574;11.170;2024-03-23T14:32:50;2.33;;;1.37;;
13408;SDS011;6775;49.574;11.170;2024-03-23T14:35:18;4.67;;;1.37;;
13408;SDS011;6775;49.574;11.170;2024-03-23T14:37:44;5.93;;;2.23;;
13408;SDS011;6775;49.574;11.170;2024-03-23T14:40:12;2.50;;;1.50;;
13408;SDS011;6775;49.574;11.170;2024-03-23T14:42:38;3.10;;;1.70;;
13408;SDS011;6775;49.574;11.170;2024-03-23T14:45:08;2.30;;;1.20;;
13408;SDS011;6775;49.574;11.170;2024-03-23T14:47:36;3.57;;;1.50;;
13408;SDS011;6775;49.574;11.170;2024-03-23T14:50:04;3.23;;;1.57;;
13408;SDS011;6775;49.574;11.170;2024-03-23T14:52:33;3.30;;;1.40;;
13408;SDS011;6775;49.574;11.170;2024-03-23T14:55:01;2.10;;;1.40;;
13408;SDS011;6775;49.574;11.170;2024-03-23T14:57:28;2.77;;;1.43;;
13408;SDS011;6775;49.574;11.170;2024-03-23T14:59:55;4.50;;;1.50;;
13408;SDS011;6775;49.574;11.170;2024-03-23T15:02:23;2.70;;;1.97;;
13408;SDS011;6775;49.574;11.170;2024-03-23T15:04:52;5.03;;;2.13;;
13408;SDS011;6775;49.574;11.170;2024-03-23T15:07:19;4.33;;;1.90;;
13408;SDS011;6775;49.574;11.170;2024-03-23T15:09:46;2.60;;;1.70;;
13408;SDS011;6775;49.574;11.170;2024-03-23T15:12:13;3.13;;;1.30;;
13408;SDS011;6775;49.574;11.170;2024-03-23T15:14:40;2.43;;;1.70;;
13408;SDS011;6775;49.574;11.170;2024-03-23T15:17:07;2.13;;;1.47;;
13408;SDS011;6775;49.574;11.170;2024-03-23T15:19:37;8.00;;;1.70;;
13408;SDS011;6775;49.574;11.170;2024-03-23T15:22:04;2.77;;;1.70;;
13408;SDS011;6775;49.574;11.170;2024-03-23T15:24:31;5.57;;;1.60;;
13408;SDS011;6775;49.574;11.170;2024-03-23T15:27:00;4.00;;;1.83;;
13408;SDS011;6775;49.574;11.170;2024-03-23T15:29:27;2.70;;;1.60;;
13408;SDS011;6775;49.574;11.170;2024-03-23T15:31:54;5.23;;;2.17;;
13408;SDS011;6775;49.574;11.170;2024-03-23T15:34:21;3.37;;;2.07;;
13408;SDS011;6775;49.574;11.170;2024-03-23T15:36:50;3.20;;;2.10;;
13408;SDS011;6775;49.574;11.170;2024-03-23T15:39:16;2.67;;;1.80;;
13408;SDS011;6775;49.574;11.170;2024-03-23T15:41:44;3.50;;;1.70;;
13408;SDS011;6775;49.574;11.170;2024-03-23T15:44:11;5.00;;;2.00;;
13408;SDS011;6775;49.574;11.170;2024-03-23T15:46:40;3.63;;;2.00;;